createdAt,value
2018-11-20T00:02:21.469Z,-1.00
2018-11-20T00:04:48.239Z,-1.00
2018-11-20T00:07:15.646Z,-1.00
2018-11-20T00:09:42.353Z,-1.00
2018-11-20T00:12:09.139Z,-0.90
2018-11-20T00:14:35.843Z,-0.90
2018-11-20T00:17:02.558Z,-0.90
2018-11-20T00:19:30.027Z,-1.00
2018-11-20T00:21:56.796Z,-1.00
2018-11-20T00:24:23.470Z,-1.00
2018-11-20T00:26:50.168Z,-0.90
2018-11-20T00:29:16.911Z,-1.00
2018-11-20T00:31:43.586Z,-1.00
2018-11-20T00:34:10.291Z,-1.10
2018-11-20T00:36:36.979Z,-1.10
2018-11-20T00:39:04.491Z,-0.90
2018-11-20T00:41:31.216Z,-1.00
2018-11-20T00:43:57.977Z,-1.00
2018-11-20T00:46:25.443Z,-0.90
2018-11-20T00:48:52.227Z,-0.90
2018-11-20T00:51:19.628Z,-0.80
2018-11-20T00:53:46.305Z,-0.90
2018-11-20T00:56:29.131Z,-0.80
2018-11-20T00:58:55.840Z,-0.70
2018-11-20T01:01:22.540Z,-0.60
2018-11-20T01:03:49.237Z,-0.60
2018-11-20T01:06:15.917Z,-0.50
2018-11-20T01:08:42.694Z,-0.50
2018-11-20T01:11:09.374Z,-0.40
2018-11-20T01:13:36.819Z,-0.50
2018-11-20T01:16:04.430Z,-0.40
2018-11-20T01:18:31.143Z,-0.40
2018-11-20T01:20:57.858Z,-0.30
2018-11-20T01:23:24.600Z,-0.40
2018-11-20T01:25:51.246Z,-0.30
2018-11-20T01:28:17.913Z,-0.30
2018-11-20T01:30:44.667Z,-0.20
2018-11-20T01:33:11.340Z,-0.20
2018-11-20T01:35:37.987Z,-0.20
2018-11-20T01:38:04.788Z,-0.20
2018-11-20T01:40:31.446Z,-0.20
2018-11-20T01:42:58.173Z,-0.20
2018-11-20T01:45:25.692Z,-0.10
2018-11-20T01:47:52.354Z,-0.20
2018-11-20T01:50:18.980Z,-0.20
2018-11-20T01:52:45.724Z,-0.20
2018-11-20T01:55:12.495Z,-0.20
2018-11-20T01:57:39.983Z,-0.30
2018-11-20T02:00:06.857Z,-0.30
2018-11-20T02:02:33.593Z,-0.30
2018-11-20T02:05:00.298Z,-0.30
2018-11-20T02:07:27.061Z,-0.40
2018-11-20T02:09:54.508Z,-0.30
2018-11-20T02:12:21.155Z,-0.30
2018-11-20T02:14:48.579Z,-0.30
2018-11-20T02:17:15.266Z,-0.30
2018-11-20T02:19:42.733Z,-0.50
2018-11-20T02:22:09.448Z,-0.50
2018-11-20T02:24:36.846Z,-0.60
2018-11-20T02:27:03.653Z,-0.70
2018-11-20T02:29:31.045Z,-0.80
2018-11-20T02:31:57.756Z,-0.80
2018-11-20T02:34:24.469Z,-0.80
2018-11-20T02:36:51.240Z,-1.00
2018-11-20T02:39:18.713Z,-1.10
2018-11-20T02:41:45.478Z,-1.10
2018-11-20T02:44:12.282Z,-1.10
2018-11-20T02:46:38.986Z,-1.20
2018-11-20T02:49:05.666Z,-1.20
2018-11-20T02:51:32.438Z,-1.20
2018-11-20T02:53:59.076Z,-1.30
2018-11-20T02:56:25.741Z,-1.30
2018-11-20T02:58:53.299Z,-1.30
2018-11-20T03:01:19.994Z,-1.30
2018-11-20T03:03:46.729Z,-1.30
2018-11-20T03:06:13.455Z,-1.30
2018-11-20T03:08:40.140Z,-1.20
2018-11-20T03:11:06.867Z,-1.20
2018-11-20T03:13:33.718Z,-1.10
2018-11-20T03:16:00.384Z,-1.10
2018-11-20T03:18:27.035Z,-1.10
2018-11-20T03:20:54.478Z,-1.00
2018-11-20T03:23:21.175Z,-1.00
2018-11-20T03:25:47.869Z,-1.00
2018-11-20T03:28:15.406Z,-0.80
2018-11-20T03:30:42.136Z,-0.90
2018-11-20T03:33:08.864Z,-0.80
2018-11-20T03:35:35.671Z,-0.80
2018-11-20T03:38:02.389Z,-0.70
2018-11-20T03:40:29.908Z,-0.70
2018-11-20T03:42:56.617Z,-0.70
2018-11-20T03:45:38.178Z,-0.60
2018-11-20T03:48:05.686Z,-0.60
2018-11-20T03:50:32.356Z,-0.60
2018-11-20T03:52:59.120Z,-0.50
2018-11-20T03:55:26.554Z,-0.60
2018-11-20T03:57:53.272Z,-0.60
2018-11-20T04:00:20.818Z,-0.80
2018-11-20T04:02:47.551Z,-0.80
2018-11-20T04:05:14.261Z,-0.70
2018-11-20T04:07:41.679Z,-0.50
2018-11-20T04:10:08.380Z,-0.50
2018-11-20T04:12:35.425Z,-0.50
2018-11-20T04:15:02.585Z,-0.40
2018-11-20T04:17:30.853Z,-0.30
2018-11-20T04:19:58.016Z,-0.30
2018-11-20T04:22:25.074Z,-0.30
2018-11-20T04:24:51.931Z,-0.20
2018-11-20T04:27:19.254Z,-0.20
2018-11-20T04:29:46.152Z,-0.20
2018-11-20T04:32:12.794Z,-0.30
2018-11-20T04:34:40.236Z,-0.20
2018-11-20T04:37:06.967Z,-0.30
2018-11-20T04:39:33.641Z,-0.20
2018-11-20T04:42:01.069Z,-0.30
2018-11-20T04:44:27.835Z,-0.30
2018-11-20T04:46:55.271Z,-0.30
2018-11-20T04:49:22.732Z,-0.20
2018-11-20T04:51:50.231Z,-0.20
2018-11-20T04:54:16.915Z,-0.30
2018-11-20T04:56:43.617Z,-0.20
2018-11-20T04:59:10.376Z,-0.20
2018-11-20T05:01:37.874Z,-0.20
2018-11-20T05:04:04.567Z,-0.20
2018-11-20T05:06:31.370Z,-0.10
2018-11-20T05:08:58.039Z,-0.10
2018-11-20T05:11:24.699Z,-0.10
2018-11-20T05:13:51.416Z,-0.10
2018-11-20T05:16:18.112Z,-0.10
2018-11-20T05:18:45.688Z,0.00
2018-11-20T05:21:13.120Z,0.00
2018-11-20T05:23:39.838Z,0.00
2018-11-20T05:26:06.549Z,0.00
2018-11-20T05:28:34.014Z,0.00
2018-11-20T05:31:00.813Z,0.00
2018-11-20T05:33:27.466Z,0.00
2018-11-20T05:35:55.025Z,0.10
2018-11-20T05:38:23.508Z,-0.10
2018-11-20T05:40:50.185Z,-0.20
2018-11-20T05:43:16.976Z,-0.10
2018-11-20T05:45:44.462Z,0.00
2018-11-20T05:48:12.008Z,0.00
2018-11-20T05:50:38.864Z,0.00
2018-11-20T05:53:05.644Z,0.00
2018-11-20T05:55:32.352Z,0.00
2018-11-20T05:57:59.059Z,0.00
2018-11-20T06:00:25.835Z,0.00
2018-11-20T06:02:52.592Z,0.00
2018-11-20T06:05:19.279Z,0.00
2018-11-20T06:07:46.733Z,0.10
2018-11-20T06:10:14.205Z,0.20
2018-11-20T06:12:40.994Z,0.20
2018-11-20T06:15:07.718Z,0.20
2018-11-20T06:17:34.452Z,0.10
2018-11-20T06:20:01.216Z,0.20
2018-11-20T06:22:27.886Z,0.20
2018-11-20T06:24:54.554Z,0.20
2018-11-20T06:27:21.250Z,0.20
2018-11-20T06:29:47.937Z,0.20
2018-11-20T06:32:14.578Z,0.20
2018-11-20T06:34:41.318Z,0.20
2018-11-20T06:37:08.035Z,0.20
2018-11-20T06:39:35.477Z,0.10
2018-11-20T06:42:02.297Z,0.10
2018-11-20T06:44:28.988Z,0.20
2018-11-20T06:46:55.686Z,0.20
2018-11-20T06:49:22.488Z,0.20
2018-11-20T06:51:49.176Z,0.30
2018-11-20T06:54:15.857Z,0.10
2018-11-20T06:56:42.609Z,0.20
2018-11-20T06:59:09.318Z,0.20
2018-11-20T07:01:36.085Z,0.20
2018-11-20T07:04:02.875Z,0.30
2018-11-20T07:06:29.566Z,0.30
2018-11-20T07:08:56.317Z,0.20
2018-11-20T07:11:23.017Z,0.20
2018-11-20T07:13:50.493Z,0.30
2018-11-20T07:16:17.311Z,0.30
2018-11-20T07:18:44.833Z,0.30
2018-11-20T07:21:11.570Z,0.20
2018-11-20T07:23:38.370Z,0.20
2018-11-20T07:26:05.040Z,0.20
2018-11-20T07:28:31.741Z,0.30
2018-11-20T07:30:58.715Z,0.30
2018-11-20T07:33:25.248Z,0.30
2018-11-20T07:35:52.058Z,0.40
2018-11-20T07:38:18.756Z,0.30
2018-11-20T07:40:45.447Z,0.30
2018-11-20T07:43:12.238Z,0.40
2018-11-20T07:45:38.938Z,0.40
2018-11-20T07:48:05.664Z,0.50
2018-11-20T07:50:33.071Z,0.60
2018-11-20T07:52:59.781Z,0.60
2018-11-20T07:55:26.484Z,0.60
2018-11-20T07:57:53.975Z,0.70
2018-11-20T08:00:20.675Z,0.60
2018-11-20T08:02:48.117Z,0.70
2018-11-20T08:05:15.687Z,0.70
2018-11-20T08:07:42.434Z,0.70
2018-11-20T08:10:09.855Z,0.70
2018-11-20T08:12:36.568Z,0.70
2018-11-20T08:15:03.328Z,0.80
2018-11-20T08:17:30.007Z,0.80
2018-11-20T08:19:57.484Z,0.90
2018-11-20T08:22:24.326Z,0.80
2018-11-20T08:24:51.737Z,1.10
2018-11-20T08:27:18.391Z,1.00
2018-11-20T08:29:45.171Z,1.10
2018-11-20T08:32:11.856Z,1.10
2018-11-20T08:34:38.589Z,1.10
2018-11-20T08:37:05.787Z,1.20
2018-11-20T08:39:32.577Z,1.20
2018-11-20T08:41:59.308Z,1.20
2018-11-20T08:44:26.086Z,1.20
2018-11-20T08:46:52.992Z,1.20
2018-11-20T08:49:19.696Z,1.30
2018-11-20T08:51:47.207Z,1.50
2018-11-20T08:54:14.012Z,1.40
2018-11-20T08:56:40.799Z,1.40
2018-11-20T08:59:07.574Z,1.40
2018-11-20T09:01:35.005Z,1.40
2018-11-20T09:04:01.963Z,1.40
2018-11-20T09:06:28.719Z,1.50
2018-11-20T09:08:56.135Z,1.50
2018-11-20T09:11:22.883Z,1.40
2018-11-20T09:13:49.596Z,1.40
2018-11-20T09:16:16.259Z,1.60
2018-11-20T09:18:42.995Z,1.70
2018-11-20T09:21:10.015Z,1.70
2018-11-20T09:23:36.941Z,1.80
2018-11-20T09:26:04.052Z,1.80
2018-11-20T09:28:31.600Z,1.90
2018-11-20T09:30:58.313Z,1.80
2018-11-20T09:33:25.074Z,1.90
2018-11-20T09:35:51.757Z,1.80
2018-11-20T09:38:19.177Z,1.80
2018-11-20T09:40:45.888Z,1.80
2018-11-20T09:43:12.907Z,1.80
2018-11-20T09:45:40.152Z,1.90
2018-11-20T09:48:07.618Z,2.10
2018-11-20T09:50:35.141Z,2.20
2018-11-20T09:53:02.239Z,2.20
2018-11-20T09:55:29.003Z,2.30
2018-11-20T09:57:55.797Z,2.20
2018-11-20T10:00:22.519Z,2.00
2018-11-20T10:02:49.256Z,2.10
2018-11-20T10:05:16.198Z,2.00
2018-11-20T10:07:43.122Z,2.00
2018-11-20T10:10:09.815Z,2.00
2018-11-20T10:12:37.387Z,2.10
2018-11-20T10:15:04.643Z,2.00
2018-11-20T10:17:32.042Z,2.00
2018-11-20T10:19:58.775Z,2.10
2018-11-20T10:22:25.512Z,2.20
2018-11-20T10:24:52.281Z,2.40
2018-11-20T10:27:18.927Z,2.60
2018-11-20T10:29:46.788Z,2.70
2018-11-20T10:32:14.361Z,2.80
2018-11-20T10:34:41.111Z,2.80
2018-11-20T10:37:07.958Z,2.70
2018-11-20T10:39:34.726Z,2.40
2018-11-20T10:42:01.689Z,2.20
2018-11-20T10:44:28.667Z,2.00
2018-11-20T10:46:56.258Z,1.80
2018-11-20T10:49:23.006Z,1.80
2018-11-20T10:51:49.735Z,1.70
2018-11-20T10:54:16.400Z,1.70
2018-11-20T10:56:43.156Z,1.70
2018-11-20T10:59:09.811Z,1.70
2018-11-20T11:01:36.593Z,1.70
2018-11-20T11:04:03.439Z,1.60
2018-11-20T11:06:30.276Z,1.70
2018-11-20T11:08:56.955Z,1.60
2018-11-20T11:14:14.783Z,1.50
2018-11-20T11:16:41.561Z,1.60
2018-11-20T11:19:08.248Z,1.50
2018-11-20T11:21:34.962Z,1.60
2018-11-20T11:24:02.475Z,1.70
2018-11-20T11:26:29.163Z,1.70
2018-11-20T11:28:56.690Z,1.90
2018-11-20T11:31:23.641Z,1.90
2018-11-20T11:33:50.495Z,2.00
2018-11-20T11:36:17.536Z,1.90
2018-11-20T11:38:44.423Z,2.00
2018-11-20T11:41:11.137Z,1.90
2018-11-20T11:43:38.604Z,1.70
2018-11-20T11:46:06.091Z,1.70
2018-11-20T11:48:32.871Z,1.70
2018-11-20T11:50:59.549Z,1.90
2018-11-20T11:53:27.029Z,1.80
2018-11-20T11:55:53.675Z,1.70
2018-11-20T11:58:20.757Z,1.70
2018-11-20T12:00:47.521Z,1.70
